Georgetown, Kentucky
Current Conditions -  °F | °C
As of 10:54 PM on Saturday 25 Oct 2014 (Local Time) from KLEX Reporting Station
Clear Clear  
Wind Chill: 63°   Ceiling: Unl
Heat Index: 63°   Visibility: 9mi
Dew Point: 56°   Wind: 8mph
Humidity: 78%   Direction: 240°WSW
Pressure: 29.97"   Gusts: NA
Location:  38.21°N, 84.56°W
Report Text: KLEX 260254Z 24007KT 9SM CLR 17/13 A2997 RMK AO2 SLP145 T01720133 55000
Loading
Personal Weather Stations






























Interactive Weather Map
Tropical Storm Tracking
New forecast layout! Learn more

10-Day Weather Forecast

Advertisements
Track Severe Weather on mobile